createdAt,value
2022-11-25T00:02:53.340Z,100022.63
2022-11-25T00:07:54.808Z,100045.50
2022-11-25T00:12:56.264Z,100022.53
2022-11-25T00:17:57.583Z,100027.81
2022-11-25T00:22:59.161Z,100026.84
2022-11-25T00:28:00.539Z,100010.66
2022-11-25T00:33:01.909Z,100011.06
2022-11-25T00:38:03.244Z,100028.19
2022-11-25T00:43:23.246Z,100014.44
2022-11-25T00:48:24.530Z,100031.72
2022-11-25T00:53:26.044Z,100022.31
2022-11-25T00:58:27.288Z,100031.59
2022-11-25T01:03:28.579Z,100017.94
2022-11-25T01:08:30.720Z,100027.56
2022-11-25T01:13:32.929Z,100030.94
2022-11-25T01:18:34.941Z,100025.97
2022-11-25T01:23:36.616Z,100024.69
2022-11-25T01:28:38.504Z,100040.88
2022-11-25T01:33:40.391Z,100019.78
2022-11-25T01:38:42.373Z,100041.25
2022-11-25T01:43:43.755Z,100028.41
2022-11-25T01:48:52.078Z,100033.53
2022-11-25T01:53:57.725Z,100013.97
2022-11-25T01:58:59.472Z,100027.81
2022-11-25T02:04:01.030Z,100020.94
2022-11-25T02:09:06.733Z,100028.50
2022-11-25T02:14:09.379Z,100032.06
2022-11-25T02:19:22.388Z,100028.75
2022-11-25T02:24:34.651Z,100032.28
2022-11-25T02:29:37.238Z,100026.75
2022-11-25T02:34:46.792Z,100018.19
2022-11-25T02:39:49.905Z,100011.28
2022-11-25T02:44:51.295Z,100009.47
2022-11-25T02:49:52.567Z,100010.88
2022-11-25T02:54:53.890Z,100018.78
2022-11-25T02:59:55.169Z,100006.19
2022-11-25T03:04:56.481Z,100013.81
2022-11-25T03:09:57.777Z,100013.16
2022-11-25T03:14:59.150Z,100013.16
2022-11-25T03:20:00.460Z,100009.13
2022-11-25T03:25:01.987Z,100023.94
2022-11-25T03:30:05.592Z,100024.59
2022-11-25T03:35:07.557Z,100016.16
2022-11-25T03:40:11.311Z,100009.38
2022-11-25T03:45:14.843Z,99978.47
2022-11-25T03:50:16.657Z,100019.06
2022-11-25T03:55:18.087Z,100017.91
2022-11-25T04:00:19.624Z,99996.31
2022-11-25T04:05:20.873Z,99993.88
2022-11-25T04:10:22.165Z,99996.50
2022-11-25T04:15:23.437Z,100002.84
2022-11-25T04:20:24.745Z,100008.59
2022-11-25T04:25:26.092Z,99992.94
2022-11-25T04:30:27.532Z,100013.00
2022-11-25T04:35:28.992Z,99997.66
2022-11-25T04:40:30.270Z,100014.28
2022-11-25T04:45:51.515Z,100006.69
2022-11-25T04:50:52.980Z,100005.19
2022-11-25T04:55:54.338Z,100001.72
2022-11-25T05:00:55.662Z,99999.09
2022-11-25T05:05:57.032Z,100001.28
2022-11-25T05:10:59.452Z,100000.53
2022-11-25T05:16:00.716Z,99990.19
2022-11-25T05:21:03.326Z,100013.88
2022-11-25T05:26:05.064Z,100003.09
2022-11-25T05:31:06.451Z,100004.22
2022-11-25T05:36:08.209Z,100013.03
2022-11-25T05:41:11.186Z,100001.41
2022-11-25T05:46:12.508Z,100003.06
2022-11-25T05:51:13.871Z,99997.56
2022-11-25T05:56:15.498Z,100011.34
2022-11-25T06:01:17.415Z,100010.63
2022-11-25T06:06:19.753Z,100022.03
2022-11-25T06:11:21.097Z,100028.63
2022-11-25T06:16:23.264Z,100027.44
2022-11-25T06:21:24.617Z,100030.94
2022-11-25T06:26:25.911Z,100029.97
2022-11-25T06:31:27.449Z,100055.59
2022-11-25T06:36:28.948Z,100038.13
2022-11-25T06:41:30.239Z,100038.44
2022-11-25T06:46:31.579Z,100037.38
2022-11-25T06:51:33.262Z,100061.22
2022-11-25T06:56:34.501Z,100062.38
2022-11-25T07:01:36.206Z,100071.47
2022-11-25T07:06:37.657Z,100076.13
2022-11-25T07:11:40.511Z,100059.41
2022-11-25T07:16:44.468Z,100077.94
2022-11-25T07:21:46.240Z,100072.56
2022-11-25T07:26:47.758Z,100071.34
2022-11-25T07:31:49.049Z,100078.88
2022-11-25T07:36:50.696Z,100091.78
2022-11-25T07:41:53.887Z,100084.16
2022-11-25T07:46:55.392Z,100084.38
2022-11-25T07:52:02.852Z,100088.38
2022-11-25T07:57:04.175Z,100096.41
2022-11-25T08:02:05.660Z,100112.53
2022-11-25T08:07:07.058Z,100109.66
2022-11-25T08:12:08.526Z,100116.84
2022-11-25T08:17:10.150Z,100122.03
2022-11-25T08:22:11.482Z,100119.50
2022-11-25T08:27:12.833Z,100133.69
2022-11-25T08:32:14.407Z,100120.31
2022-11-25T08:37:15.719Z,100119.94
2022-11-25T08:42:17.037Z,100128.28
2022-11-25T08:47:18.494Z,100135.94
2022-11-25T08:52:21.128Z,100131.50
2022-11-25T08:57:22.438Z,100131.34
2022-11-25T09:02:24.838Z,100131.13
2022-11-25T09:07:30.700Z,100125.94
2022-11-25T09:12:32.433Z,100130.91
2022-11-25T09:17:37.211Z,100151.66
2022-11-25T09:22:38.476Z,100167.41
2022-11-25T09:27:39.794Z,100182.22
2022-11-25T09:32:41.368Z,100170.94
2022-11-25T09:37:42.682Z,100170.38
2022-11-25T09:43:08.727Z,100190.94
2022-11-25T09:48:19.767Z,100193.03
2022-11-25T09:53:42.176Z,100190.53
2022-11-25T09:58:53.346Z,100192.22
2022-11-25T10:04:02.061Z,100193.66
2022-11-25T10:09:28.697Z,100191.44
2022-11-25T10:14:46.423Z,100185.13
2022-11-25T10:19:59.063Z,100210.53
2022-11-25T10:25:20.141Z,100190.66
2022-11-25T10:30:38.288Z,100199.88
2022-11-25T10:35:45.830Z,100199.72
2022-11-25T10:40:50.607Z,100200.50
2022-11-25T10:46:15.084Z,100215.72
2022-11-25T10:51:35.947Z,100216.13
2022-11-25T10:57:03.992Z,100215.25
2022-11-25T11:02:23.541Z,100213.72
2022-11-25T11:07:28.421Z,100227.28
2022-11-25T11:12:29.864Z,100235.56
2022-11-25T11:17:37.113Z,100230.25
2022-11-25T11:22:48.170Z,100234.88
2022-11-25T11:27:49.537Z,100224.19
2022-11-25T11:32:58.298Z,100233.84
2022-11-25T11:38:07.021Z,100239.59
2022-11-25T11:43:46.332Z,100234.72
2022-11-25T11:48:54.769Z,100239.53
2022-11-25T11:54:08.407Z,100236.81
2022-11-25T11:59:46.567Z,100234.19
2022-11-25T12:05:14.118Z,100249.28
2022-11-25T12:10:15.454Z,100253.13
2022-11-25T12:15:39.928Z,100247.56
2022-11-25T12:21:05.297Z,100264.38
2022-11-25T12:26:17.334Z,100261.56
2022-11-25T12:31:30.360Z,100257.97
2022-11-25T12:36:38.235Z,100252.16
2022-11-25T12:41:46.999Z,100258.38
2022-11-25T12:46:54.362Z,100272.56
2022-11-25T12:52:07.739Z,100278.59
2022-11-25T12:57:43.142Z,100284.81
2022-11-25T13:03:07.061Z,100293.03
2022-11-25T13:08:33.833Z,100294.72
2022-11-25T13:14:08.236Z,100304.69
2022-11-25T13:19:13.600Z,100299.81
2022-11-25T13:24:30.803Z,100325.63
2022-11-25T13:29:32.156Z,100327.13
2022-11-25T13:34:35.467Z,100338.22
2022-11-25T13:39:38.231Z,100347.56
2022-11-25T13:44:52.535Z,100355.78
2022-11-25T13:50:23.259Z,100358.22
2022-11-25T13:55:39.686Z,100360.97
2022-11-25T14:01:01.389Z,100374.91
2022-11-25T14:06:09.940Z,100369.06
2022-11-25T14:11:11.281Z,100389.25
2022-11-25T14:16:21.650Z,100388.16
2022-11-25T14:21:52.180Z,100388.84
2022-11-25T14:26:57.321Z,100392.97
2022-11-25T14:32:05.020Z,100390.41
2022-11-25T14:37:29.470Z,100396.56
2022-11-25T14:42:38.369Z,100407.38
2022-11-25T14:47:39.682Z,100421.78
2022-11-25T14:52:47.441Z,100422.53
2022-11-25T14:57:49.010Z,100429.94
2022-11-25T15:03:00.164Z,100432.34
2022-11-25T15:08:03.217Z,100439.50
2022-11-25T15:13:44.561Z,100433.09
2022-11-25T15:18:52.915Z,100443.63
2022-11-25T15:23:54.593Z,100445.69
2022-11-25T15:28:57.196Z,100450.19
2022-11-25T15:34:03.977Z,100455.63
2022-11-25T15:39:19.000Z,100455.38
2022-11-25T15:44:25.942Z,100462.38
2022-11-25T15:49:27.931Z,100471.56
2022-11-25T15:54:33.465Z,100480.50
2022-11-25T15:59:40.774Z,100487.63
2022-11-25T16:04:42.044Z,100499.59
2022-11-25T16:09:51.216Z,100500.00
2022-11-25T16:14:52.503Z,100496.91
2022-11-25T16:19:53.833Z,100516.28
2022-11-25T16:25:00.570Z,100519.47
2022-11-25T16:30:06.698Z,100502.09
2022-11-25T16:35:22.028Z,100529.50
2022-11-25T16:40:24.421Z,100540.50
2022-11-25T16:45:27.722Z,100533.22
2022-11-25T16:50:29.111Z,100533.34
2022-11-25T16:55:30.747Z,100556.03
2022-11-25T17:00:32.278Z,100539.00
2022-11-25T17:05:33.719Z,100562.22
2022-11-25T17:10:35.216Z,100567.31
2022-11-25T17:15:38.092Z,100580.66
2022-11-25T17:20:39.517Z,100594.47
2022-11-25T17:25:45.067Z,100593.28
2022-11-25T17:30:47.241Z,100594.75
2022-11-25T17:35:48.566Z,100589.53
2022-11-25T17:40:50.576Z,100607.16
2022-11-25T17:45:52.067Z,100612.47
2022-11-25T17:50:53.376Z,100615.59
2022-11-25T17:55:54.839Z,100637.81
2022-11-25T18:00:56.242Z,100635.69
2022-11-25T18:05:57.967Z,100659.97
2022-11-25T18:11:02.633Z,100661.19
2022-11-25T18:16:04.511Z,100664.09
2022-11-25T18:21:05.871Z,100646.34
2022-11-25T18:26:11.552Z,100674.44
2022-11-25T18:31:12.931Z,100671.56
2022-11-25T18:36:14.330Z,100696.78
2022-11-25T18:41:21.399Z,100689.53
2022-11-25T18:46:22.786Z,100700.84
2022-11-25T18:51:24.275Z,100703.50
2022-11-25T18:56:25.667Z,100715.09
2022-11-25T19:01:27.925Z,100727.09
2022-11-25T19:06:29.405Z,100745.53
2022-11-25T19:11:36.434Z,100745.53
2022-11-25T19:16:38.467Z,100761.91
2022-11-25T19:21:39.865Z,100778.13
2022-11-25T19:26:45.164Z,100788.94
2022-11-25T19:31:49.301Z,100791.72
2022-11-25T19:36:50.909Z,100805.34
2022-11-25T19:41:52.750Z,100808.00
2022-11-25T19:52:19.480Z,100822.09
2022-11-25T19:57:23.617Z,100830.28
2022-11-25T20:02:26.394Z,100823.66
2022-11-25T20:07:29.906Z,100831.31
2022-11-25T20:12:31.224Z,100839.63
2022-11-25T20:17:34.932Z,100858.25
2022-11-25T20:22:39.506Z,100863.03
2022-11-25T20:27:40.874Z,100866.44
2022-11-25T20:32:42.187Z,100870.69
2022-11-25T20:38:00.423Z,100877.91
2022-11-25T20:43:01.826Z,100879.00
2022-11-25T20:48:03.455Z,100894.09
2022-11-25T20:53:05.149Z,100909.16
2022-11-25T20:58:20.513Z,100920.22
2022-11-25T21:03:22.079Z,100918.75
2022-11-25T21:08:25.829Z,100922.56
2022-11-25T21:13:29.579Z,100941.22
2022-11-25T21:18:30.836Z,100940.09
2022-11-25T21:23:34.990Z,100951.34
2022-11-25T21:28:41.723Z,100954.31
2022-11-25T21:33:44.257Z,100923.34
2022-11-25T21:38:47.372Z,100954.44
2022-11-25T21:43:50.011Z,100967.09
2022-11-25T21:48:51.369Z,100967.75
2022-11-25T21:53:53.864Z,100975.44
2022-11-25T21:58:56.405Z,100976.09
2022-11-25T22:03:58.536Z,100975.34
2022-11-25T22:08:59.872Z,100984.47
2022-11-25T22:14:05.065Z,100991.25
2022-11-25T22:19:06.364Z,100988.34
2022-11-25T22:24:18.323Z,100983.31
2022-11-25T22:29:23.503Z,101007.22
2022-11-25T22:34:25.366Z,101009.47
2022-11-25T22:39:27.069Z,101021.44
2022-11-25T22:44:46.707Z,101018.56
2022-11-25T22:49:49.553Z,101015.22
2022-11-25T22:54:50.902Z,101042.81
2022-11-25T22:59:52.217Z,101043.00
2022-11-25T23:04:55.784Z,101044.63
2022-11-25T23:09:57.177Z,101049.75
2022-11-25T23:14:58.423Z,101045.66
2022-11-25T23:19:59.708Z,101050.44
2022-11-25T23:25:01.003Z,101063.38
2022-11-25T23:30:02.303Z,101068.00
2022-11-25T23:35:05.037Z,101060.22
2022-11-25T23:40:13.378Z,101074.94
2022-11-25T23:45:16.786Z,101074.72
2022-11-25T23:50:26.118Z,101080.03
2022-11-25T23:55:31.637Z,101092.75
